Time;durP1;ratioP1;P1;durP2;ratioP2;P2;SDS_P1;SDS_P2;PMS_P1;PMS_P2;Temp;Humidity;BMP_temperature;BMP_pressure;BME280_temperature;BME280_humidity;BME280_pressure;Samples;Min_cycle;Max_cycle;Signal;HPM_P1;HPM_P2
2022/07/23 00:00:08;;;;;;;7.35;3.83;;;14.80;99.90;;;;;;5054878;28;20103;-74
2022/07/23 00:02:36;;;;;;;6.93;3.95;;;14.80;99.90;;;;;;5053162;28;20501;-74
2022/07/23 00:05:03;;;;;;;5.60;3.60;;;14.80;99.90;;;;;;5054962;28;20547;-74
2022/07/23 00:07:30;;;;;;;6.88;4.07;;;14.80;99.90;;;;;;5054114;28;20045;-74
2022/07/23 00:09:57;;;;;;;9.02;3.58;;;14.80;99.90;;;;;;5053681;28;20061;-73
2022/07/23 00:12:24;;;;;;;5.85;4.07;;;14.80;99.90;;;;;;5053062;28;20049;-73
2022/07/23 00:14:51;;;;;;;5.97;3.83;;;14.80;99.90;;;;;;5054013;28;20053;-74
2022/07/23 00:17:18;;;;;;;8.73;3.65;;;14.70;99.90;;;;;;5052808;28;20103;-74
2022/07/23 00:19:46;;;;;;;7.35;3.65;;;14.70;99.90;;;;;;5053018;28;20485;-73
2022/07/23 00:22:13;;;;;;;7.45;3.67;;;14.80;99.90;;;;;;5053032;28;20057;-73
2022/07/23 00:24:40;;;;;;;9.35;4.38;;;14.70;99.90;;;;;;5052249;28;20064;-72
2022/07/23 00:27:07;;;;;;;6.70;3.75;;;14.70;99.90;;;;;;5052538;28;20056;-73
2022/07/23 00:29:34;;;;;;;6.05;3.78;;;14.70;99.90;;;;;;5053522;28;20048;-72
2022/07/23 00:32:01;;;;;;;6.38;3.88;;;14.70;99.90;;;;;;5053994;28;20523;-72
2022/07/23 00:34:28;;;;;;;4.95;3.20;;;14.60;99.90;;;;;;5054058;28;20053;-72
2022/07/23 00:36:56;;;;;;;5.57;4.32;;;14.60;99.90;;;;;;5053414;28;20056;-72
2022/07/23 00:39:23;;;;;;;8.30;4.55;;;14.50;99.90;;;;;;5052035;28;20493;-73
2022/07/23 00:41:51;;;;;;;7.60;4.53;;;14.50;99.90;;;;;;5053854;28;20103;-72
2022/07/23 00:44:22;;;;;;;6.97;4.20;;;14.50;99.90;;;;;;5053452;28;20448;-72
2022/07/23 00:46:55;;;;;;;6.97;4.55;;;14.40;99.90;;;;;;5053539;28;20052;-72
2022/07/23 00:49:23;;;;;;;20.48;4.47;;;14.40;99.90;;;;;;5052921;28;20489;-73
2022/07/23 00:51:51;;;;;;;8.82;4.10;;;14.30;99.90;;;;;;5053041;28;20090;-73
2022/07/23 00:54:19;;;;;;;7.00;4.57;;;14.30;99.90;;;;;;5051626;28;20114;-72
2022/07/23 00:56:47;;;;;;;5.30;4.13;;;14.30;99.90;;;;;;5032563;28;20083;-72
2022/07/23 00:59:15;;;;;;;9.20;4.95;;;14.30;99.90;;;;;;5032982;28;20516;-74
2022/07/23 01:01:43;;;;;;;7.97;4.53;;;14.20;99.90;;;;;;5032112;28;20571;-74
2022/07/23 01:04:10;;;;;;;8.52;4.90;;;14.20;99.90;;;;;;5033589;28;20513;-72
2022/07/23 01:06:39;;;;;;;6.80;3.90;;;14.20;99.90;;;;;;5031760;28;20057;-73
2022/07/23 01:09:06;;;;;;;9.20;4.65;;;14.20;99.90;;;;;;5033144;28;20057;-73
2022/07/23 01:11:37;;;;;;;5.40;4.00;;;14.10;99.90;;;;;;5032305;28;20501;-72
2022/07/23 01:14:11;;;;;;;;;;;14.10;99.90;;;;;;5033124;28;20099;-72
2022/07/23 01:16:37;;;;;;;9.02;4.65;;;14.10;99.90;;;;;;5032310;28;19975;-73
2022/07/23 01:19:06;;;;;;;8.82;4.35;;;14.00;99.90;;;;;;5031578;28;20045;-73
2022/07/23 01:21:36;;;;;;;7.88;4.22;;;14.00;99.90;;;;;;5049599;28;20056;-73
2022/07/23 01:24:05;;;;;;;7.05;4.45;;;14.00;99.90;;;;;;5052481;28;20053;-72
2022/07/23 01:26:32;;;;;;;11.95;5.22;;;14.00;99.90;;;;;;5052815;28;20057;-73
2022/07/23 01:28:59;;;;;;;6.30;3.83;;;14.00;99.90;;;;;;5051707;28;20048;-72
2022/07/23 01:31:26;;;;;;;9.38;4.65;;;14.00;99.90;;;;;;5052047;28;20049;-73
2022/07/23 01:33:53;;;;;;;9.20;5.05;;;14.00;99.90;;;;;;5052013;28;20493;-74
2022/07/23 01:36:20;;;;;;;11.00;4.82;;;14.00;99.90;;;;;;5051686;28;20114;-73
2022/07/23 01:38:47;;;;;;;11.45;4.57;;;14.00;99.90;;;;;;5051870;28;20041;-73
2022/07/23 01:41:15;;;;;;;7.50;4.70;;;13.90;99.90;;;;;;5052460;28;20497;-73
2022/07/23 01:43:42;;;;;;;9.70;4.68;;;13.90;99.90;;;;;;5051598;28;20061;-73
2022/07/23 01:46:09;;;;;;;10.48;4.22;;;13.90;99.90;;;;;;5052310;28;20057;-73
2022/07/23 01:48:36;;;;;;;9.77;4.55;;;13.80;99.90;;;;;;5052558;28;20053;-72
2022/07/23 01:51:03;;;;;;;8.93;4.57;;;13.80;99.90;;;;;;5052390;28;20061;-72
2022/07/23 01:53:30;;;;;;;7.43;4.72;;;13.80;99.90;;;;;;5053035;28;20124;-73
2022/07/23 01:55:58;;;;;;;13.65;4.50;;;13.80;99.90;;;;;;5051100;28;20088;-73
2022/07/23 01:58:27;;;;;;;10.68;5.07;;;13.70;99.90;;;;;;5051297;28;20110;-73
2022/07/23 02:00:54;;;;;;;10.63;5.30;;;13.80;99.90;;;;;;5052973;28;20095;-72
2022/07/23 02:03:21;;;;;;;9.15;5.65;;;13.70;99.90;;;;;;5052430;28;20044;-73
2022/07/23 02:05:48;;;;;;;8.32;4.57;;;13.70;99.90;;;;;;5051849;28;20045;-72
2022/07/23 02:08:15;;;;;;;10.73;5.00;;;13.70;99.90;;;;;;5052014;28;20517;-72
2022/07/23 02:10:42;;;;;;;7.18;4.82;;;13.70;99.90;;;;;;5052848;28;20049;-73
2022/07/23 02:13:09;;;;;;;6.22;4.53;;;13.70;99.90;;;;;;5051517;28;20056;-72
2022/07/23 02:15:37;;;;;;;14.27;5.18;;;13.70;99.90;;;;;;5051848;28;20057;-72
2022/07/23 02:18:05;;;;;;;7.60;4.78;;;13.70;99.90;;;;;;5053080;28;20049;-73
2022/07/23 02:20:32;;;;;;;8.95;4.80;;;13.70;99.90;;;;;;5051493;28;20493;-73
2022/07/23 02:22:58;;;;;;;5.90;5.07;;;13.70;99.90;;;;;;5051861;28;20072;-72
2022/07/23 02:25:25;;;;;;;7.25;4.78;;;13.80;99.90;;;;;;5052325;28;20355;-73
2022/07/23 02:27:52;;;;;;;11.48;5.55;;;13.80;99.90;;;;;;5068600;28;20218;-72
2022/07/23 02:30:19;;;;;;;7.80;5.32;;;13.80;99.90;;;;;;5051579;28;20091;-73
2022/07/23 02:32:47;;;;;;;9.15;5.40;;;13.80;99.90;;;;;;5051423;28;20098;-72
2022/07/23 02:35:14;;;;;;;15.38;5.47;;;13.80;99.90;;;;;;5051197;28;20056;-73
2022/07/23 02:37:41;;;;;;;10.80;5.70;;;13.90;99.90;;;;;;5051970;28;20053;-72
2022/07/23 02:40:09;;;;;;;7.72;5.40;;;13.90;99.90;;;;;;5051203;28;20049;-73
2022/07/23 02:42:35;;;;;;;12.30;5.53;;;13.90;99.90;;;;;;5051195;28;20063;-72
2022/07/23 02:45:02;;;;;;;8.82;5.30;;;13.90;99.90;;;;;;5051853;28;20104;-72
2022/07/23 02:47:31;;;;;;;8.50;5.88;;;13.90;99.90;;;;;;5053832;28;20126;-72
2022/07/23 02:50:00;;;;;;;8.73;4.68;;;13.90;99.90;;;;;;5054394;28;20037;-73
2022/07/23 02:52:26;;;;;;;9.55;5.95;;;14.00;99.90;;;;;;5054969;28;20051;-72
2022/07/23 02:54:53;;;;;;;7.30;4.70;;;14.00;99.90;;;;;;5054840;28;20555;-73
2022/07/23 02:57:20;;;;;;;9.95;5.30;;;14.00;99.90;;;;;;5054826;28;20045;-73
2022/07/23 02:59:47;;;;;;;9.48;5.50;;;14.00;99.90;;;;;;5055542;28;20049;-73
2022/07/23 03:02:14;;;;;;;9.25;4.93;;;14.00;99.90;;;;;;5054956;28;20057;-72
2022/07/23 03:04:42;;;;;;;8.65;5.30;;;13.90;99.90;;;;;;5053518;28;20103;-73
2022/07/23 03:07:10;;;;;;;8.07;5.20;;;13.90;99.90;;;;;;5054453;28;20052;-72
2022/07/23 03:09:37;;;;;;;9.30;5.78;;;13.90;99.90;;;;;;5053852;28;20052;-73
2022/07/23 03:12:04;;;;;;;7.03;4.38;;;13.90;99.90;;;;;;5054098;28;20106;-73
2022/07/23 03:14:31;;;;;;;8.52;5.22;;;13.90;99.90;;;;;;5054079;28;20061;-72
2022/07/23 03:16:59;;;;;;;6.72;4.65;;;13.90;99.90;;;;;;5055573;28;20041;-72
2022/07/23 03:19:26;;;;;;;7.40;4.70;;;13.90;99.90;;;;;;5054707;28;20044;-73
2022/07/23 03:21:53;;;;;;;6.32;4.60;;;13.80;99.90;;;;;;5055064;28;20084;-73
2022/07/23 03:24:23;;;;;;;12.35;5.20;;;13.80;99.90;;;;;;5053962;28;20053;-73
2022/07/23 03:26:50;;;;;;;9.57;5.18;;;13.80;99.90;;;;;;5054764;28;20081;-72
2022/07/23 03:29:17;;;;;;;8.25;4.90;;;13.80;99.90;;;;;;5053187;28;20041;-73
2022/07/23 03:31:44;;;;;;;8.02;4.43;;;13.80;99.90;;;;;;5053850;28;20132;-73
2022/07/23 03:34:11;;;;;;;6.55;4.22;;;13.80;99.90;;;;;;5053265;28;20049;-73
2022/07/23 03:36:38;;;;;;;6.32;4.47;;;13.90;99.90;;;;;;5053304;28;20456;-73
2022/07/23 03:39:05;;;;;;;6.93;4.35;;;13.90;99.90;;;;;;5053169;28;20041;-73
2022/07/23 03:41:33;;;;;;;13.23;4.68;;;13.90;99.90;;;;;;5054457;28;20057;-73
2022/07/23 03:44:00;;;;;;;6.75;4.45;;;13.90;99.90;;;;;;5054126;28;20052;-73
2022/07/23 03:46:27;;;;;;;6.82;4.80;;;14.00;99.90;;;;;;5055406;28;20053;-72
2022/07/23 03:48:53;;;;;;;8.75;4.40;;;14.00;99.90;;;;;;5053160;28;20051;-72
2022/07/23 03:51:20;;;;;;;7.18;4.30;;;14.00;99.90;;;;;;5054549;28;20049;-72
2022/07/23 03:53:48;;;;;;;8.45;4.20;;;14.10;99.90;;;;;;5053493;28;20052;-72
2022/07/23 03:56:15;;;;;;;6.47;4.47;;;14.20;99.90;;;;;;5054961;28;20052;-72
2022/07/23 03:58:44;;;;;;;6.60;4.38;;;14.10;99.90;;;;;;5054775;28;20452;-71
2022/07/23 04:01:12;;;;;;;7.78;4.03;;;14.20;99.90;;;;;;5053076;28;20485;-73
2022/07/23 04:03:39;;;;;;;5.95;4.22;;;14.20;99.90;;;;;;5053114;28;20075;-71
2022/07/23 04:06:06;;;;;;;11.57;4.13;;;14.20;99.90;;;;;;5054124;28;20049;-72
2022/07/23 04:08:33;;;;;;;8.70;5.00;;;14.20;99.90;;;;;;5052234;28;20563;-73
2022/07/23 04:11:00;;;;;;;4.65;3.67;;;14.30;99.90;;;;;;5053190;28;20493;-73
2022/07/23 04:13:27;;;;;;;7.78;4.65;;;14.30;99.90;;;;;;5053398;28;20053;-73
2022/07/23 04:15:55;;;;;;;6.78;3.97;;;14.40;99.90;;;;;;5053089;28;20061;-72
2022/07/23 04:18:23;;;;;;;7.97;4.00;;;14.40;99.90;;;;;;5053856;28;20386;-72
2022/07/23 04:20:51;;;;;;;6.95;3.83;;;14.40;99.90;;;;;;5054130;28;20099;-71
2022/07/23 04:23:18;;;;;;;6.85;3.90;;;14.30;99.90;;;;;;5052414;28;20048;-70
2022/07/23 04:25:45;;;;;;;5.47;3.95;;;14.40;99.90;;;;;;5052452;28;20053;-74
2022/07/23 04:28:12;;;;;;;5.90;3.42;;;14.40;99.90;;;;;;5053819;28;20049;-73
2022/07/23 04:30:39;;;;;;;6.78;3.97;;;14.40;99.90;;;;;;5052036;28;20078;-72
2022/07/23 04:33:07;;;;;;;6.00;4.25;;;14.40;99.90;;;;;;5053915;28;20516;-73
2022/07/23 04:35:34;;;;;;;5.82;3.83;;;14.40;99.90;;;;;;5052245;28;20056;-73
2022/07/23 04:38:01;;;;;;;8.88;3.72;;;14.40;99.90;;;;;;5051834;28;20095;-73
2022/07/23 04:40:29;;;;;;;7.32;3.72;;;14.50;99.90;;;;;;5053637;28;20041;-73
2022/07/23 04:42:55;;;;;;;6.00;4.18;;;14.50;99.90;;;;;;5052069;28;20102;-74
2022/07/23 04:45:23;;;;;;;9.45;4.57;;;14.60;99.90;;;;;;5053262;28;20099;-73
2022/07/23 04:47:50;;;;;;;8.25;4.15;;;14.60;99.90;;;;;;5052477;28;20063;-72
2022/07/23 04:50:21;;;;;;;8.88;4.25;;;14.60;99.90;;;;;;5052531;28;20048;-73
2022/07/23 04:52:48;;;;;;;7.07;3.80;;;14.70;99.90;;;;;;5052057;28;20059;-73
2022/07/23 04:55:15;;;;;;;6.95;3.50;;;14.70;99.90;;;;;;5053082;28;20048;-72
2022/07/23 04:57:42;;;;;;;6.57;3.70;;;14.80;99.90;;;;;;5052790;28;20542;-72
2022/07/23 05:00:11;;;;;;;10.65;4.50;;;14.80;99.90;;;;;;5052811;28;20049;-73
2022/07/23 05:02:37;;;;;;;7.47;3.53;;;14.80;99.90;;;;;;5052656;28;20102;-73
2022/07/23 05:05:05;;;;;;;4.57;3.47;;;14.90;99.90;;;;;;5052120;28;20057;-72
2022/07/23 05:07:33;;;;;;;7.60;3.85;;;14.90;99.90;;;;;;5052153;28;20480;-73
2022/07/23 05:10:00;;;;;;;6.10;3.20;;;15.00;99.90;;;;;;5050866;28;20102;-72
2022/07/23 05:12:27;;;;;;;6.32;3.50;;;15.00;99.90;;;;;;5052687;28;20455;-73
2022/07/23 05:14:54;;;;;;;7.43;4.28;;;15.10;99.90;;;;;;5051600;28;20126;-73
2022/07/23 05:17:21;;;;;;;6.90;3.78;;;15.10;99.90;;;;;;5052116;28;20554;-73
2022/07/23 05:19:48;;;;;;;5.68;3.20;;;15.10;99.90;;;;;;5050618;28;20056;-72
2022/07/23 05:22:14;;;;;;;6.90;3.58;;;15.10;99.90;;;;;;5053116;28;20049;-73
2022/07/23 05:24:43;;;;;;;6.75;3.30;;;15.20;99.90;;;;;;5052778;28;20052;-71
2022/07/23 05:27:10;;;;;;;7.25;3.85;;;15.20;99.90;;;;;;5052308;28;20056;-73
2022/07/23 05:29:37;;;;;;;7.10;3.85;;;15.20;99.90;;;;;;5053143;28;20048;-74
2022/07/23 05:32:04;;;;;;;4.80;3.20;;;15.20;99.90;;;;;;5051503;28;20175;-74
2022/07/23 05:34:31;;;;;;;6.20;3.88;;;15.20;99.90;;;;;;5052311;28;20045;-73
2022/07/23 05:36:58;;;;;;;6.75;3.55;;;15.20;99.90;;;;;;5052951;28;20497;-73
2022/07/23 05:39:25;;;;;;;7.68;3.35;;;15.30;99.90;;;;;;5052151;28;20099;-73
2022/07/23 05:41:53;;;;;;;7.15;3.63;;;15.60;99.90;;;;;;5051564;28;20060;-72
2022/07/23 05:44:20;;;;;;;5.53;3.05;;;15.80;99.90;;;;;;5052211;28;20599;-73
2022/07/23 05:46:47;;;;;;;5.40;3.13;;;16.10;99.90;;;;;;5050548;28;20135;-73
2022/07/23 05:49:14;;;;;;;6.45;2.83;;;16.20;99.90;;;;;;5048966;28;20115;-73
2022/07/23 05:51:41;;;;;;;4.40;2.75;;;16.20;99.90;;;;;;5031630;28;20077;-72
2022/07/23 05:54:08;;;;;;;10.52;3.50;;;16.20;99.90;;;;;;5041009;28;20056;-72
2022/07/23 05:56:35;;;;;;;3.85;3.10;;;16.20;99.90;;;;;;5044243;28;20084;-72
2022/07/23 05:59:03;;;;;;;5.15;2.90;;;16.30;99.90;;;;;;5045659;28;20049;-72
2022/07/23 06:01:30;;;;;;;7.93;2.72;;;16.30;99.90;;;;;;5043124;28;20480;-73
2022/07/23 06:03:57;;;;;;;7.90;3.75;;;16.30;99.90;;;;;;5042429;28;20517;-72
2022/07/23 06:06:24;;;;;;;5.28;3.35;;;16.40;99.90;;;;;;5042586;28;20392;-72
2022/07/23 06:08:50;;;;;;;6.20;2.60;;;16.40;99.90;;;;;;5046490;28;20643;-73
2022/07/23 06:11:17;;;;;;;5.20;2.70;;;16.40;99.90;;;;;;5043599;28;20040;-72
2022/07/23 06:13:44;;;;;;;6.38;3.05;;;16.40;99.90;;;;;;5044521;28;20052;-72
2022/07/23 06:16:12;;;;;;;7.32;2.70;;;16.50;99.90;;;;;;5043758;28;20075;-72
2022/07/23 06:18:39;;;;;;;5.25;2.38;;;16.70;99.90;;;;;;5047491;28;20484;-72
2022/07/23 06:21:06;;;;;;;4.53;2.50;;;16.80;99.90;;;;;;5046717;28;20098;-73
2022/07/23 06:23:33;;;;;;;7.35;2.80;;;16.80;99.90;;;;;;5047751;28;20068;-71
2022/07/23 06:26:00;;;;;;;4.80;2.40;;;16.90;99.90;;;;;;5049316;28;20456;-71
2022/07/23 06:28:27;;;;;;;4.68;2.70;;;17.00;99.90;;;;;;5048244;28;20500;-72
2022/07/23 06:30:54;;;;;;;3.28;2.40;;;17.10;99.90;;;;;;5046958;28;20077;-72
2022/07/23 06:33:22;;;;;;;4.72;2.63;;;17.10;99.90;;;;;;5050660;28;20060;-73
2022/07/23 06:35:49;;;;;;;3.75;2.30;;;17.30;99.90;;;;;;5050445;28;20119;-73
2022/07/23 06:38:16;;;;;;;4.28;2.42;;;17.40;99.90;;;;;;5047144;28;20045;-73
2022/07/23 06:40:43;;;;;;;3.95;2.22;;;17.50;99.90;;;;;;5048256;28;20394;-71
2022/07/23 06:43:10;;;;;;;5.72;2.67;;;17.80;99.90;;;;;;5063313;28;20049;-72
2022/07/23 06:45:37;;;;;;;8.02;2.08;;;18.00;99.90;;;;;;5048633;28;20114;-72
2022/07/23 06:48:04;;;;;;;4.15;2.00;;;18.40;99.90;;;;;;5047925;28;20065;-71
2022/07/23 06:50:32;;;;;;;4.07;2.33;;;18.70;99.90;;;;;;5049182;28;20037;-72
2022/07/23 06:52:59;;;;;;;3.88;1.40;;;19.10;99.90;;;;;;5046512;28;20045;-71
2022/07/23 06:55:26;;;;;;;5.10;1.48;;;19.50;99.90;;;;;;5049959;28;20053;-72
2022/07/23 06:57:53;;;;;;;3.58;1.15;;;20.00;99.90;;;;;;5048663;28;20056;-71
2022/07/23 07:00:20;;;;;;;2.72;0.90;;;20.50;99.90;;;;;;5050303;28;20138;-71
2022/07/23 07:02:47;;;;;;;1.92;0.80;;;21.10;99.90;;;;;;5046676;28;20091;-73
2022/07/23 07:05:13;;;;;;;2.47;1.00;;;21.80;99.90;;;;;;5042434;28;20056;-73
2022/07/23 07:07:42;;;;;;;1.42;0.70;;;22.30;99.90;;;;;;5045781;28;20098;-72
2022/07/23 07:10:09;;;;;;;2.88;0.85;;;22.90;99.90;;;;;;5045609;28;20097;-73
2022/07/23 07:12:36;;;;;;;1.95;1.00;;;23.40;99.90;;;;;;5058887;28;20059;-72
2022/07/23 07:15:04;;;;;;;3.40;1.30;;;23.90;99.30;;;;;;5048921;28;20048;-72
2022/07/23 07:17:30;;;;;;;2.00;0.80;;;24.20;99.90;;;;;;5046643;28;20056;-72
2022/07/23 07:19:57;;;;;;;3.03;0.70;;;24.60;98.80;;;;;;5051469;28;20041;-73
2022/07/23 07:22:24;;;;;;;1.75;0.60;;;24.60;97.90;;;;;;5046885;28;20049;-72
2022/07/23 07:24:52;;;;;;;2.65;0.60;;;23.90;96.60;;;;;;5044110;28;20413;-73
2022/07/23 07:27:19;;;;;;;1.70;0.70;;;23.90;96.50;;;;;;5045842;28;20137;-73
2022/07/23 07:29:46;;;;;;;3.58;0.75;;;23.50;96.60;;;;;;5051886;28;20057;-73
2022/07/23 07:32:13;;;;;;;2.15;0.60;;;23.00;96.70;;;;;;5044656;28;20044;-72
2022/07/23 07:34:40;;;;;;;1.30;0.70;;;22.30;96.80;;;;;;5044770;28;20084;-72
2022/07/23 07:37:06;;;;;;;1.95;0.65;;;21.90;97.20;;;;;;5045369;28;20049;-71
2022/07/23 07:39:33;;;;;;;4.88;0.70;;;21.80;97.70;;;;;;5045978;28;20080;-72
2022/07/23 07:42:01;;;;;;;2.25;0.57;;;21.70;97.70;;;;;;5050801;28;20052;-71
2022/07/23 07:44:28;;;;;;;1.08;0.60;;;21.60;96.80;;;;;;5045897;28;20041;-73
2022/07/23 07:46:55;;;;;;;1.52;0.80;;;21.50;96.80;;;;;;5046045;28;20099;-73
2022/07/23 07:49:22;;;;;;;1.73;0.57;;;21.50;96.90;;;;;;5043863;28;20102;-72
2022/07/23 07:51:49;;;;;;;1.27;0.52;;;21.40;96.90;;;;;;5043673;28;20487;-74
2022/07/23 07:54:16;;;;;;;1.33;0.63;;;21.30;96.80;;;;;;5044036;28;20052;-72
2022/07/23 07:56:43;;;;;;;2.03;0.93;;;21.20;96.90;;;;;;5048206;28;20053;-73
2022/07/23 07:59:11;;;;;;;6.70;0.90;;;21.10;97.20;;;;;;5043493;28;20049;-74
2022/07/23 08:01:38;;;;;;;4.10;0.80;;;20.90;96.90;;;;;;5047256;28;20036;-73
2022/07/23 08:04:05;;;;;;;1.20;0.80;;;21.00;97.20;;;;;;5048253;28;20048;-73
2022/07/23 08:06:32;;;;;;;2.25;0.82;;;21.30;97.10;;;;;;5045091;28;20063;-73
2022/07/23 08:08:59;;;;;;;1.40;0.70;;;21.60;96.50;;;;;;5045249;28;20102;-73
2022/07/23 08:11:26;;;;;;;1.10;0.60;;;22.40;96.30;;;;;;5045300;28;20615;-72
2022/07/23 08:13:52;;;;;;;2.20;0.77;;;23.10;95.60;;;;;;5042547;28;20194;-76
2022/07/23 08:16:21;;;;;;;2.40;0.50;;;23.40;95.30;;;;;;5040039;28;20056;-74
2022/07/23 08:18:47;;;;;;;3.08;0.65;;;23.50;94.50;;;;;;5032733;28;20112;-74
2022/07/23 08:21:14;;;;;;;0.80;0.40;;;23.40;94.60;;;;;;5032637;28;20136;-74
2022/07/23 08:23:41;;;;;;;1.90;0.63;;;23.40;94.60;;;;;;5032985;28;20061;-74
2022/07/23 08:26:08;;;;;;;2.45;0.55;;;23.20;94.40;;;;;;5032946;28;20045;-73
2022/07/23 08:28:35;;;;;;;2.63;0.75;;;23.00;94.00;;;;;;5033289;28;20493;-73
2022/07/23 08:31:02;;;;;;;2.47;0.65;;;23.10;94.10;;;;;;5032493;28;20049;-74
2022/07/23 08:33:30;;;;;;;3.42;0.73;;;23.10;93.90;;;;;;5034176;28;20049;-73
2022/07/23 08:35:57;;;;;;;2.40;0.70;;;22.80;93.80;;;;;;5033268;28;20053;-74
2022/07/23 08:38:24;;;;;;;2.05;0.65;;;22.50;93.80;;;;;;5033673;28;20464;-73
2022/07/23 08:40:53;;;;;;;2.65;0.50;;;22.40;94.10;;;;;;5032774;28;20136;-73
2022/07/23 08:43:23;;;;;;;2.50;0.93;;;22.40;94.30;;;;;;5031790;28;20057;-73
2022/07/23 08:45:52;;;;;;;2.63;0.70;;;22.10;94.10;;;;;;5049117;28;20054;-73
2022/07/23 08:48:21;;;;;;;1.70;0.70;;;22.10;94.20;;;;;;5033513;28;20049;-74
2022/07/23 08:50:51;;;;;;;3.80;0.73;;;22.00;94.20;;;;;;5031879;28;20107;-74
2022/07/23 08:53:19;;;;;;;;;;;22.00;94.20;;;;;;5034199;28;20049;-74
2022/07/23 08:55:47;;;;;;;2.08;0.65;;;22.40;93.60;;;;;;5032095;28;19921;-73
2022/07/23 08:58:15;;;;;;;1.80;0.60;;;23.60;94.30;;;;;;5031715;28;20053;-74
2022/07/23 09:00:42;;;;;;;3.40;1.23;;;24.20;93.10;;;;;;5033724;28;20103;-75
2022/07/23 09:03:14;;;;;;;5.82;1.00;;;24.40;92.60;;;;;;5031845;28;20049;-75
2022/07/23 09:05:41;;;;;;;3.15;0.70;;;24.20;92.30;;;;;;5034175;28;20378;-72
2022/07/23 09:08:11;;;;;;;2.90;0.80;;;23.70;92.40;;;;;;5032284;28;20061;-73
2022/07/23 09:10:50;;;;;;;1.08;0.68;;;23.50;92.40;;;;;;5032866;28;20517;-74
2022/07/23 09:13:35;;;;;;;2.78;1.05;;;23.30;92.80;;;;;;5039654;28;20076;-74
2022/07/23 09:16:06;;;;;;;1.27;0.70;;;23.20;92.70;;;;;;5033172;28;20140;-73
2022/07/23 09:18:34;;;;;;;;;;;23.00;93.30;;;;;;5036448;28;20045;-74
2022/07/23 09:21:10;;;;;;;3.13;0.80;;;22.80;93.10;;;;;;5049649;28;19968;-74
2022/07/23 09:23:43;;;;;;;1.80;0.90;;;22.80;93.60;;;;;;5042942;28;20052;-74
2022/07/23 09:26:35;;;;;;;1.50;0.70;;;22.70;93.60;;;;;;5030623;28;20497;-74
2022/07/23 09:29:06;;;;;;;2.38;0.70;;;22.50;93.70;;;;;;5036273;28;20049;-74
2022/07/23 09:31:42;;;;;;;2.10;0.80;;;22.40;94.00;;;;;;5041516;28;20347;-75
2022/07/23 09:34:12;;;;;;;2.22;0.88;;;22.70;94.10;;;;;;5048968;28;20045;-75
2022/07/23 09:36:39;;;;;;;14.15;1.00;;;22.70;93.50;;;;;;5035625;28;20057;-75
2022/07/23 09:39:08;;;;;;;3.05;1.17;;;22.80;93.80;;;;;;5039567;28;20056;-75
2022/07/23 09:41:37;;;;;;;4.65;1.13;;;23.10;93.90;;;;;;5042445;28;20049;-75
2022/07/23 09:44:10;;;;;;;1.77;0.60;;;23.10;93.20;;;;;;5039449;28;20061;-76
2022/07/23 09:46:39;;;;;;;3.42;0.80;;;23.10;93.00;;;;;;5030600;28;20137;-74
2022/07/23 09:49:13;;;;;;;2.50;0.73;;;23.10;93.10;;;;;;5049140;28;20045;-75
2022/07/23 09:51:46;;;;;;;2.33;0.70;;;23.10;92.90;;;;;;5033580;28;20045;-75
2022/07/23 09:54:25;;;;;;;2.25;0.80;;;23.10;92.70;;;;;;5032936;28;20135;-75
2022/07/23 09:56:53;;;;;;;4.55;1.02;;;23.10;92.70;;;;;;5035238;28;20049;-74
2022/07/23 09:59:26;;;;;;;3.88;1.00;;;22.90;93.20;;;;;;5044273;28;20060;-75
2022/07/23 10:01:56;;;;;;;2.90;0.82;;;22.80;93.50;;;;;;5054405;28;20053;-75
2022/07/23 10:04:24;;;;;;;5.57;0.80;;;22.60;93.70;;;;;;5044434;28;20559;-74
2022/07/23 10:06:53;;;;;;;2.47;0.80;;;22.40;93.80;;;;;;5034812;28;20045;-74
2022/07/23 10:09:26;;;;;;;5.05;0.90;;;22.40;94.20;;;;;;5034968;28;20061;-74
2022/07/23 10:11:56;;;;;;;3.80;1.00;;;22.40;94.20;;;;;;5041819;28;20125;-75
2022/07/23 10:14:24;;;;;;;4.57;0.90;;;22.40;94.50;;;;;;5035341;28;20083;-76
2022/07/23 10:16:51;;;;;;;3.70;0.90;;;22.50;94.40;;;;;;5034508;28;20496;-74
2022/07/23 10:19:19;;;;;;;1.88;0.70;;;22.50;94.30;;;;;;5035606;28;20490;-75
2022/07/23 10:21:48;;;;;;;7.53;1.05;;;22.50;94.30;;;;;;5034297;28;20100;-75
2022/07/23 10:24:26;;;;;;;1.25;0.73;;;22.40;94.40;;;;;;5041881;28;20142;-75
2022/07/23 10:27:09;;;;;;;2.95;0.80;;;22.40;94.30;;;;;;5052081;28;20488;-75
2022/07/23 10:29:46;;;;;;;2.60;1.00;;;22.40;94.40;;;;;;5070243;28;20508;-75
2022/07/23 10:32:24;;;;;;;2.60;0.70;;;22.30;94.50;;;;;;5038350;28;20088;-74
2022/07/23 10:34:59;;;;;;;4.03;0.98;;;22.40;94.60;;;;;;5033298;28;20056;-76
2022/07/23 10:37:33;;;;;;;17.38;1.70;;;22.60;94.60;;;;;;5046727;28;20084;-75
2022/07/23 10:40:12;;;;;;;14.20;1.52;;;22.90;94.30;;;;;;5041268;28;20099;-74
2022/07/23 10:42:41;;;;;;;7.13;1.30;;;23.00;93.50;;;;;;5033458;28;20489;-73
2022/07/23 10:45:28;;;;;;;4.45;1.30;;;22.90;94.00;;;;;;5040786;28;20663;-75
2022/07/23 10:47:55;;;;;;;2.50;0.82;;;22.80;94.00;;;;;;5054161;28;20099;-75
2022/07/23 10:50:25;;;;;;;2.38;1.00;;;22.60;94.40;;;;;;5033607;28;20103;-76
2022/07/23 10:53:17;;;;;;;2.75;0.98;;;22.50;94.60;;;;;;5034616;28;20057;-75
2022/07/23 10:55:51;;;;;;;4.28;1.30;;;22.20;94.70;;;;;;5033190;28;20049;-75
2022/07/23 10:58:21;;;;;;;2.25;1.05;;;22.10;94.90;;;;;;5037359;28;20160;-75
2022/07/23 11:00:47;;;;;;;3.08;1.10;;;22.10;95.20;;;;;;5055092;28;20083;-74
2022/07/23 11:03:33;;;;;;;3.40;1.10;;;22.00;95.30;;;;;;5051510;28;20103;-75
2022/07/23 11:06:00;;;;;;;2.78;1.10;;;22.10;95.40;;;;;;5033878;28;20136;-75
2022/07/23 11:08:27;;;;;;;5.28;1.10;;;22.10;95.40;;;;;;5053730;28;20409;-74
2022/07/23 11:11:08;;;;;;;3.47;1.30;;;21.90;95.70;;;;;;5033990;28;20049;-75
2022/07/23 11:13:45;;;;;;;7.38;1.60;;;21.60;96.30;;;;;;5051859;28;20045;-74
2022/07/23 11:16:17;;;;;;;4.57;1.10;;;21.50;96.50;;;;;;5052739;28;20484;-73
2022/07/23 11:19:06;;;;;;;6.15;1.52;;;21.50;96.70;;;;;;5045243;28;20145;-74
2022/07/23 11:21:47;;;;;;;3.80;1.20;;;21.40;97.00;;;;;;5044798;28;20136;-73
2022/07/23 11:24:19;;;;;;;3.30;1.05;;;21.50;97.10;;;;;;5047766;28;20052;-73
2022/07/23 11:27:03;;;;;;;4.60;1.38;;;21.70;96.80;;;;;;5045929;28;20482;-73
2022/07/23 11:29:44;;;;;;;2.33;1.02;;;21.90;96.70;;;;;;5044814;28;20099;-73
2022/07/23 11:32:19;;;;;;;;;;;22.30;96.20;;;;;;5035819;28;20418;-74
2022/07/23 11:34:48;;;;;;;2.95;1.05;;;22.60;96.40;;;;;;5046033;28;20406;-73
2022/07/23 11:37:29;;;;;;;3.45;1.20;;;23.10;96.10;;;;;;5056679;28;20103;-74
2022/07/23 11:39:57;;;;;;;4.15;1.30;;;23.40;95.10;;;;;;5043447;28;20049;-73
2022/07/23 11:42:25;;;;;;;3.35;1.42;;;23.80;95.00;;;;;;5058603;28;20136;-72
2022/07/23 11:44:52;;;;;;;1.95;1.00;;;23.90;94.20;;;;;;5044705;28;20045;-74
2022/07/23 11:47:23;;;;;;;2.28;1.20;;;23.80;94.30;;;;;;5068935;28;20053;-74
2022/07/23 11:49:54;;;;;;;4.57;1.50;;;23.60;93.90;;;;;;5036156;28;20085;-74
2022/07/23 11:52:21;;;;;;;4.50;1.40;;;23.50;94.40;;;;;;5033435;28;20428;-73
2022/07/23 11:54:50;;;;;;;3.95;1.25;;;23.30;94.80;;;;;;5035508;28;20460;-73
2022/07/23 11:57:17;;;;;;;9.90;1.67;;;23.30;95.00;;;;;;5039553;28;20091;-73
2022/07/23 11:59:48;;;;;;;34.63;3.65;;;23.40;94.90;;;;;;5056356;28;20061;-74
2022/07/23 12:02:15;;;;;;;4.68;1.45;;;24.10;94.50;;;;;;5049428;28;20451;-75
2022/07/23 12:04:43;;;;;;;14.10;2.72;;;24.60;94.00;;;;;;5040288;28;20543;-74
2022/07/23 12:07:27;;;;;;;3.15;1.17;;;24.80;93.80;;;;;;5032073;28;20127;-74
2022/07/23 12:09:55;;;;;;;2.42;1.20;;;25.00;92.20;;;;;;5033117;28;20469;-73
2022/07/23 12:12:23;;;;;;;4.95;1.15;;;25.50;93.00;;;;;;5033799;28;20049;-74
2022/07/23 12:14:53;;;;;;;3.40;1.10;;;26.10;92.60;;;;;;5034638;28;20103;-74
2022/07/23 12:17:21;;;;;;;40.53;3.85;;;26.20;92.30;;;;;;5033099;28;20124;-72
2022/07/23 12:19:49;;;;;;;3.80;1.20;;;26.70;91.70;;;;;;5032135;28;20489;-72
2022/07/23 12:22:16;;;;;;;3.67;0.90;;;27.40;90.90;;;;;;5030777;28;20485;-74
2022/07/23 12:24:56;;;;;;;10.07;1.27;;;27.90;90.40;;;;;;5032423;28;20084;-74
2022/07/23 12:27:24;;;;;;;4.35;1.00;;;28.00;86.80;;;;;;5039197;28;20049;-74
2022/07/23 12:29:52;;;;;;;38.72;2.80;;;28.30;87.70;;;;;;5037264;28;20100;-74
2022/07/23 12:32:21;;;;;;;4.93;1.30;;;28.40;86.40;;;;;;5030877;28;20077;-76
2022/07/23 12:34:50;;;;;;;18.23;3.40;;;28.40;85.00;;;;;;5044493;28;20412;-75
2022/07/23 12:37:31;;;;;;;4.53;1.13;;;28.30;85.30;;;;;;5065677;28;20053;-79
2022/07/23 12:39:59;;;;;;;4.53;0.82;;;28.00;82.10;;;;;;5049766;28;20226;-77
2022/07/23 12:42:25;;;;;;;4.60;1.38;;;27.90;84.00;;;;;;5042370;28;20120;-78
2022/07/23 12:45:12;;;;;;;3.70;1.17;;;28.40;83.90;;;;;;5042291;28;20140;-77
2022/07/23 12:48:03;;;;;;;6.07;1.60;;;28.80;81.20;;;;;;5035047;28;20544;-76
2022/07/23 12:50:45;;;;;;;2.30;1.30;;;28.70;81.50;;;;;;5030973;28;20064;-76
2022/07/23 12:53:15;;;;;;;2.60;0.95;;;28.90;79.90;;;;;;5041926;28;20110;-77
2022/07/23 12:55:42;;;;;;;3.33;1.45;;;29.30;81.00;;;;;;5033550;28;20508;-77